Friday, March 27, 2015
06:58 UTC
  |  Log In   |  Register Free
Airport Search:

La Porte Municipal Airport
(T41)

La Porte Municipal Airport Diagram
No Airport Diagram Available

FAA data valid effective March 05, 2015 - April 30, 2015 (unless otherwise noted).

 
 
 
 
 
 
 
 
 
 
 
 
 
 

Current Aviation Weather for La Porte Municipal Airport (T41)

METAR data is unavailable for T41. The nearest METAR location is at KEFD (6.2 nm SW from T41).

The most recent METAR observation for KEFD was updated at: 1408
METAR Summary (Translated METAR)
KEFD
251350Z 13004KT 5SM BR SCT017 20/19 A3002
(6.2 nm SW from T41)
KHOU
251353Z 14004KT 10SM SCT020 SCT250 18/18 A3001 RMK AO2 SLP166 T01830178
(11.3 nm SW from T41)
TAF Summary (Translated TAF)
KEFD
2513/2618 13006KT 6000 BR SCT015 QNH2995INS BECMG 2515/2516 VRB06KT 9999 NSW FEW015 QNH2994INS BECMG 2523/2524 16009KT 9999 SCT010 QNH2991INS BECMG 2608/2609 VRB06KT 8000 BR OVC010 QNH2987INS BECMG 2614/2615 25009KT 8000 -RA BR OVC008 QNH2986INS TEMPO 2615/2618 29010G15KT 4800 -TSRA BR OVC005CB TX25/2520Z TN13/2612Z AMD 251351
KHOU
(6.7 nm NW from KEFD)
251120Z 2512/2612 00000KT 2SM BR FEW015 FM251400 15007KT P6SM SCT025 FM252000 12014KT P6SM BKN250 FM260200 15006KT P6SM SCT100 FM260800 21004KT P6SM VCSH SCT007 BKN012
  Airport Weather Conditions for T41

Current weather conditions are
not available for T41


The nearest NOAA weather station
is at EFD, (6.2 nm SW from T41)
  
 Current Weather at EFD
59° F
Partly Cloudy
Northwest winds at 11.5 mph
EFD NOAA Radar

Pressure: 30.12 in
Humidity: 63%
Wind: Northwest at 11.5 MPH (10 KT)
Dew Point: 46.4°F
Visibility: 10.00 mi


Airport Weather Forecast for T41

Translated METAR and TAF for KEFD
Translated METAR for KEFD (0657 UTC 27 March 2015)
found at http://aviationweather.gov/adds/metars/
 
METAR text: KEFD 270550Z 33010KT 10SM SCT250 15/08 A3012
Conditions at: KEFD (HOUSTON/ELLINGTO, TX, US) observed 0550 UTC 27 March 2015
Temperature: 15.0°C (59°F)
Dewpoint: 8.0°C (46°F) [RH = 63%]
Pressure (altimeter): 30.12 inches Hg (1020.1 mb)
Winds: from the NNW (330 degrees) at 12 MPH (10 knots; 5.2 m/s)
Visibility: 10 or more miles (16+ km)
Ceiling: at least 12,000 feet AGL
Clouds: scattered clouds at 25000 feet AGL
Weather: no significant weather observed at this time
Translated TAF for KEFD
Forecast for: KEFD (HOUSTON/ELLINGTO, TX, US)
TAF Text: TAF KEFD 2704/2810 34009KT 9999 SCT030 QNH3008INS
Forecast period: 0400 to 0600 UTC 27 March 2015
Forecast type: FROM: standard forecast or significant change
Winds: from the NNW (340 degrees) at 10 MPH (9 knots; 4.7 m/s)
Visibility: 6 or more miles (10+ km)
Clouds: scattered clouds at 3000 feet AGL
Weather: no significant weather forecast for this period
TAF Text: BECMG 2706/2707 35009KT 9999 SKC QNH3008INS TX22/2721Z TN09/2712Z
Forecast period: 0600 UTC 27 March 2015 to 1000 UTC 28 March 2015
Forecast type: BECOMING: Conditions expected to become as follows by 0700 UTC 27 March 2015
Winds: from the N (350 degrees) at 10 MPH (9 knots; 4.7 m/s)
Visibility: 6 or more miles (10+ km)
Clouds: clear skies
Weather: no significant weather forecast for this period

Find All Airport Services Find A Hotel Find A Rental Car Find A Golf Course Find A Restaurant $100 Hamburger



FBO's on the Field
FBO Company Facility Photos Services Transportation Aviation Fuel Prices: Prices include tax
Catering Weather Repair Courtesy Rental Type 100LL JetA JetA+ MOGAS 8087
 
Harvey & Rihn Aviation

This FBO has not yet been rated
FS:Independent
Last Updated: Mar-03
Login to update fuel prices
SS:
Contact Harvey & Rihn AviationMore FBO Information
 
Tri-Star Aviation

This FBO has not yet been rated
FS:Avfuel
Last Updated: Feb-20
Login to update fuel prices
SS:
Contact Tri-Star AviationMore FBO Information
 
Add another FBO Facility Photos Catering Weather Repair Courtesy Rental Type 100LL JetA JetA+ MOGAS 8087
Services Transportation Aviation Fuel Prices: Prices include tax


model-print
model-print
model-print
model-print